Kansas, Oklahoma
Current Conditions -  °F | °C
As of 9:15 PM on Thursday 18 Dec 2014 (Local Time) from KSLG Reporting Station
Overcast Overcast  
Wind Chill: 39°   Ceiling: 300
Heat Index: 39°   Visibility: 1.7mi
Dew Point: 34°   Wind: 3mph
Humidity: 81%   Direction: 50°NE
Pressure: 30.22"   Gusts: NA
Location:  36.21°N, 94.8°W
Report Text: KSLG 190315Z AUTO 05003KT 1 3/4SM OVC003 04/01 A3022 RMK AO1
Loading
Personal Weather Stations






























Interactive Weather Map New forecast layout! Learn more

10-Day Weather Forecast

Advertisements
Track Severe Weather on mobile